sensor_id;sensor_type;location;lat;lon;timestamp;pressure;altitude;pressure_sealevel;temperature;humidity
33075;BME280;19433;51.292;6.868;2022-11-11T00:00:26;101673.50;;;7.61;100.00
33075;BME280;19433;51.292;6.868;2022-11-11T00:02:54;101696.75;;;7.66;100.00
33075;BME280;19433;51.292;6.868;2022-11-11T00:05:19;101709.31;;;7.69;100.00
33075;BME280;19433;51.292;6.868;2022-11-11T00:07:46;101709.31;;;7.69;100.00
33075;BME280;19433;51.292;6.868;2022-11-11T00:10:11;101714.59;;;7.80;100.00
33075;BME280;19433;51.292;6.868;2022-11-11T00:12:36;101719.47;;;7.68;100.00
33075;BME280;19433;51.292;6.868;2022-11-11T00:15:02;101719.00;;;7.73;100.00
33075;BME280;19433;51.292;6.868;2022-11-11T00:17:27;101721.19;;;7.69;100.00
33075;BME280;19433;51.292;6.868;2022-11-11T00:20:11;101726.09;;;7.75;100.00
33075;BME280;19433;51.292;6.868;2022-11-11T00:22:55;101720.78;;;7.64;100.00
33075;BME280;19433;51.292;6.868;2022-11-11T00:25:40;101726.47;;;7.63;100.00
33075;BME280;19433;51.292;6.868;2022-11-11T00:28:06;101721.31;;;7.78;100.00
33075;BME280;19433;51.292;6.868;2022-11-11T00:30:31;101721.31;;;7.78;100.00
33075;BME280;19433;51.292;6.868;2022-11-11T00:32:57;101719.41;;;7.78;100.00
33075;BME280;19433;51.292;6.868;2022-11-11T00:35:22;101705.25;;;7.73;100.00
33075;BME280;19433;51.292;6.868;2022-11-11T00:38:08;101702.72;;;7.62;100.00
33075;BME280;19433;51.292;6.868;2022-11-11T00:40:34;101704.78;;;7.60;100.00
33075;BME280;19433;51.292;6.868;2022-11-11T00:43:00;101709.72;;;7.56;100.00
33075;BME280;19433;51.292;6.868;2022-11-11T00:45:25;101706.47;;;7.43;100.00
33075;BME280;19433;51.292;6.868;2022-11-11T00:47:50;101706.56;;;7.24;100.00
33075;BME280;19433;51.292;6.868;2022-11-11T00:50:35;101705.97;;;7.30;100.00
33075;BME280;19433;51.292;6.868;2022-11-11T00:53:24;101696.66;;;7.13;100.00
33075;BME280;19433;51.292;6.868;2022-11-11T00:55:50;101704.25;;;7.29;100.00
33075;BME280;19433;51.292;6.868;2022-11-11T00:58:16;101710.41;;;7.13;100.00
33075;BME280;19433;51.292;6.868;2022-11-11T01:00:42;101708.66;;;7.12;100.00
33075;BME280;19433;51.292;6.868;2022-11-11T01:03:07;101718.66;;;7.03;100.00
33075;BME280;19433;51.292;6.868;2022-11-11T01:05:33;101722.97;;;7.16;100.00
33075;BME280;19433;51.292;6.868;2022-11-11T01:08:00;101718.88;;;7.20;100.00
33075;BME280;19433;51.292;6.868;2022-11-11T01:10:25;101729.88;;;7.20;100.00
33075;BME280;19433;51.292;6.868;2022-11-11T01:13:18;101729.81;;;7.57;100.00
33075;BME280;19433;51.292;6.868;2022-11-11T01:15:47;101735.59;;;7.63;100.00
33075;BME280;19433;51.292;6.868;2022-11-11T01:18:16;101740.38;;;7.61;100.00
33075;BME280;19433;51.292;6.868;2022-11-11T01:20:42;101734.16;;;7.59;100.00
33075;BME280;19433;51.292;6.868;2022-11-11T01:23:09;101720.25;;;7.61;100.00
33075;BME280;19433;51.292;6.868;2022-11-11T01:25:36;101729.03;;;7.64;100.00
33075;BME280;19433;51.292;6.868;2022-11-11T01:28:02;101729.47;;;7.42;100.00
33075;BME280;19433;51.292;6.868;2022-11-11T01:30:30;101726.00;;;7.40;100.00
33075;BME280;19433;51.292;6.868;2022-11-11T01:32:56;101722.69;;;7.36;100.00
33075;BME280;19433;51.292;6.868;2022-11-11T01:35:21;101722.91;;;7.53;100.00
33075;BME280;19433;51.292;6.868;2022-11-11T01:37:46;101730.94;;;7.36;100.00
33075;BME280;19433;51.292;6.868;2022-11-11T01:40:11;101728.88;;;7.48;100.00
33075;BME280;19433;51.292;6.868;2022-11-11T01:42:51;101724.22;;;7.49;100.00
33075;BME280;19433;51.292;6.868;2022-11-11T01:45:43;101718.91;;;7.47;100.00
33075;BME280;19433;51.292;6.868;2022-11-11T01:48:15;101734.56;;;7.37;100.00
33075;BME280;19433;51.292;6.868;2022-11-11T01:51:00;101722.25;;;7.14;100.00
33075;BME280;19433;51.292;6.868;2022-11-11T01:53:28;101737.59;;;7.06;100.00
33075;BME280;19433;51.292;6.868;2022-11-11T01:55:53;101738.88;;;7.12;100.00
33075;BME280;19433;51.292;6.868;2022-11-11T01:58:19;101738.84;;;7.22;100.00
33075;BME280;19433;51.292;6.868;2022-11-11T02:00:45;101747.56;;;7.45;100.00
33075;BME280;19433;51.292;6.868;2022-11-11T02:03:12;101732.38;;;7.40;100.00
33075;BME280;19433;51.292;6.868;2022-11-11T02:05:38;101736.16;;;7.39;100.00
33075;BME280;19433;51.292;6.868;2022-11-11T02:08:10;101737.31;;;7.37;100.00
33075;BME280;19433;51.292;6.868;2022-11-11T02:10:39;101738.47;;;7.34;100.00
33075;BME280;19433;51.292;6.868;2022-11-11T02:13:14;101736.81;;;7.24;100.00
33075;BME280;19433;51.292;6.868;2022-11-11T02:15:59;101736.06;;;7.31;100.00
33075;BME280;19433;51.292;6.868;2022-11-11T02:18:24;101732.81;;;7.36;100.00
33075;BME280;19433;51.292;6.868;2022-11-11T02:20:51;101723.47;;;7.29;100.00
33075;BME280;19433;51.292;6.868;2022-11-11T02:26:03;101727.38;;;6.99;100.00
33075;BME280;19433;51.292;6.868;2022-11-11T02:28:31;101724.47;;;7.00;100.00
33075;BME280;19433;51.292;6.868;2022-11-11T02:30:57;101726.72;;;6.87;100.00
33075;BME280;19433;51.292;6.868;2022-11-11T02:33:22;101733.22;;;6.86;100.00
33075;BME280;19433;51.292;6.868;2022-11-11T02:35:50;101733.97;;;7.06;100.00
33075;BME280;19433;51.292;6.868;2022-11-11T02:38:20;101732.81;;;7.09;100.00
33075;BME280;19433;51.292;6.868;2022-11-11T02:40:45;101736.13;;;7.12;100.00
33075;BME280;19433;51.292;6.868;2022-11-11T02:43:30;101728.59;;;6.87;100.00
33075;BME280;19433;51.292;6.868;2022-11-11T02:45:56;101734.69;;;7.08;100.00
33075;BME280;19433;51.292;6.868;2022-11-11T02:48:22;101731.72;;;7.01;100.00
33075;BME280;19433;51.292;6.868;2022-11-11T02:50:48;101726.47;;;7.08;100.00
33075;BME280;19433;51.292;6.868;2022-11-11T02:53:13;101728.50;;;7.06;100.00
33075;BME280;19433;51.292;6.868;2022-11-11T02:55:39;101735.72;;;7.07;100.00
33075;BME280;19433;51.292;6.868;2022-11-11T02:58:04;101741.50;;;7.14;100.00
33075;BME280;19433;51.292;6.868;2022-11-11T03:00:29;101734.13;;;7.14;100.00
33075;BME280;19433;51.292;6.868;2022-11-11T03:02:54;101738.22;;;7.00;100.00
33075;BME280;19433;51.292;6.868;2022-11-11T03:05:20;101720.72;;;7.01;100.00
33075;BME280;19433;51.292;6.868;2022-11-11T03:07:45;101731.66;;;7.11;100.00
33075;BME280;19433;51.292;6.868;2022-11-11T03:10:11;101729.63;;;7.13;100.00
33075;BME280;19433;51.292;6.868;2022-11-11T03:12:36;101718.06;;;7.10;100.00
33075;BME280;19433;51.292;6.868;2022-11-11T03:15:01;101721.41;;;7.03;100.00
33075;BME280;19433;51.292;6.868;2022-11-11T03:17:27;101727.91;;;7.12;100.00
33075;BME280;19433;51.292;6.868;2022-11-11T03:20:11;101734.91;;;6.97;100.00
33075;BME280;19433;51.292;6.868;2022-11-11T03:23:10;101730.38;;;7.05;100.00
33075;BME280;19433;51.292;6.868;2022-11-11T03:25:37;101737.31;;;7.10;100.00
33075;BME280;19433;51.292;6.868;2022-11-11T03:28:08;101736.00;;;7.04;100.00
33075;BME280;19433;51.292;6.868;2022-11-11T03:30:35;101736.94;;;6.95;100.00
33075;BME280;19433;51.292;6.868;2022-11-11T03:33:01;101746.56;;;7.09;100.00
33075;BME280;19433;51.292;6.868;2022-11-11T03:35:27;101745.22;;;6.85;100.00
33075;BME280;19433;51.292;6.868;2022-11-11T03:37:53;101729.22;;;6.71;100.00
33075;BME280;19433;51.292;6.868;2022-11-11T03:40:36;101720.63;;;6.84;100.00
33075;BME280;19433;51.292;6.868;2022-11-11T03:43:02;101706.47;;;6.79;100.00
33075;BME280;19433;51.292;6.868;2022-11-11T03:45:27;101707.19;;;6.81;100.00
33075;BME280;19433;51.292;6.868;2022-11-11T03:47:52;101716.63;;;6.68;100.00
33075;BME280;19433;51.292;6.868;2022-11-11T03:50:19;101718.22;;;6.61;100.00
33075;BME280;19433;51.292;6.868;2022-11-11T03:52:45;101715.38;;;6.53;100.00
33075;BME280;19433;51.292;6.868;2022-11-11T03:55:10;101720.88;;;6.53;100.00
33075;BME280;19433;51.292;6.868;2022-11-11T03:57:44;101719.72;;;6.46;100.00
33075;BME280;19433;51.292;6.868;2022-11-11T04:00:15;101707.53;;;6.58;100.00
33075;BME280;19433;51.292;6.868;2022-11-11T04:02:40;101721.97;;;6.70;100.00
33075;BME280;19433;51.292;6.868;2022-11-11T04:05:25;101713.84;;;6.78;100.00
33075;BME280;19433;51.292;6.868;2022-11-11T04:08:14;101720.22;;;6.79;100.00
33075;BME280;19433;51.292;6.868;2022-11-11T04:10:59;101726.41;;;6.81;100.00
33075;BME280;19433;51.292;6.868;2022-11-11T04:13:27;101729.03;;;6.72;100.00
33075;BME280;19433;51.292;6.868;2022-11-11T04:16:12;101716.50;;;6.60;100.00
33075;BME280;19433;51.292;6.868;2022-11-11T04:18:37;101737.91;;;6.57;100.00
33075;BME280;19433;51.292;6.868;2022-11-11T04:21:22;101744.09;;;6.68;100.00
33075;BME280;19433;51.292;6.868;2022-11-11T04:24:08;101740.03;;;6.72;100.00
33075;BME280;19433;51.292;6.868;2022-11-11T04:26:57;101739.16;;;6.82;100.00
33075;BME280;19433;51.292;6.868;2022-11-11T04:29:24;101739.44;;;6.79;100.00
33075;BME280;19433;51.292;6.868;2022-11-11T04:32:06;101737.28;;;6.72;100.00
33075;BME280;19433;51.292;6.868;2022-11-11T04:34:55;101749.13;;;6.73;100.00
33075;BME280;19433;51.292;6.868;2022-11-11T04:37:22;101734.97;;;6.78;100.00
33075;BME280;19433;51.292;6.868;2022-11-11T04:39:48;101738.72;;;6.77;100.00
33075;BME280;19433;51.292;6.868;2022-11-11T04:42:33;101734.72;;;6.61;100.00
33075;BME280;19433;51.292;6.868;2022-11-11T04:44:59;101728.34;;;6.70;100.00
33075;BME280;19433;51.292;6.868;2022-11-11T04:48:06;101728.63;;;6.67;100.00
33075;BME280;19433;51.292;6.868;2022-11-11T04:50:37;101736.88;;;6.67;100.00
33075;BME280;19433;51.292;6.868;2022-11-11T04:53:04;101725.50;;;6.53;100.00
33075;BME280;19433;51.292;6.868;2022-11-11T04:55:30;101727.44;;;6.80;100.00
33075;BME280;19433;51.292;6.868;2022-11-11T04:58:17;101724.84;;;6.78;100.00
33075;BME280;19433;51.292;6.868;2022-11-11T05:00:43;101721.97;;;6.70;100.00
33075;BME280;19433;51.292;6.868;2022-11-11T05:03:11;101724.41;;;6.73;100.00
33075;BME280;19433;51.292;6.868;2022-11-11T05:05:53;101729.16;;;6.81;100.00
33075;BME280;19433;51.292;6.868;2022-11-11T05:08:39;101718.38;;;6.69;100.00
33075;BME280;19433;51.292;6.868;2022-11-11T05:11:21;101720.50;;;6.85;100.00
33075;BME280;19433;51.292;6.868;2022-11-11T05:13:47;101724.59;;;6.72;100.00
33075;BME280;19433;51.292;6.868;2022-11-11T05:16:35;101721.59;;;6.92;100.00
33075;BME280;19433;51.292;6.868;2022-11-11T05:19:20;101727.97;;;6.93;100.00
33075;BME280;19433;51.292;6.868;2022-11-11T05:22:08;101725.50;;;6.90;100.00
33075;BME280;19433;51.292;6.868;2022-11-11T05:24:35;101722.47;;;7.02;100.00
33075;BME280;19433;51.292;6.868;2022-11-11T05:27:19;101723.69;;;6.81;100.00
33075;BME280;19433;51.292;6.868;2022-11-11T05:29:45;101736.44;;;7.09;100.00
33075;BME280;19433;51.292;6.868;2022-11-11T05:32:15;101735.50;;;6.91;100.00
33075;BME280;19433;51.292;6.868;2022-11-11T05:34:40;101745.94;;;6.87;100.00
33075;BME280;19433;51.292;6.868;2022-11-11T05:37:06;101742.88;;;6.90;100.00
33075;BME280;19433;51.292;6.868;2022-11-11T05:39:31;101746.03;;;6.95;100.00
33075;BME280;19433;51.292;6.868;2022-11-11T05:41:56;101754.38;;;7.03;100.00
33075;BME280;19433;51.292;6.868;2022-11-11T05:44:21;101739.97;;;6.92;100.00
33075;BME280;19433;51.292;6.868;2022-11-11T05:46:47;101751.88;;;6.83;100.00
33075;BME280;19433;51.292;6.868;2022-11-11T05:49:12;101752.16;;;6.80;100.00
33075;BME280;19433;51.292;6.868;2022-11-11T05:51:43;101744.97;;;6.69;100.00
33075;BME280;19433;51.292;6.868;2022-11-11T05:54:09;101754.75;;;6.81;100.00
33075;BME280;19433;51.292;6.868;2022-11-11T05:56:34;101754.47;;;6.84;100.00
33075;BME280;19433;51.292;6.868;2022-11-11T05:58:59;101756.34;;;6.84;100.00
33075;BME280;19433;51.292;6.868;2022-11-11T06:01:25;101744.34;;;6.75;100.00
33075;BME280;19433;51.292;6.868;2022-11-11T06:03:50;101745.13;;;6.67;100.00
33075;BME280;19433;51.292;6.868;2022-11-11T06:06:15;101760.34;;;6.89;100.00
33075;BME280;19433;51.292;6.868;2022-11-11T06:08:41;101762.00;;;6.72;100.00
33075;BME280;19433;51.292;6.868;2022-11-11T06:11:06;101752.16;;;6.80;100.00
33075;BME280;19433;51.292;6.868;2022-11-11T06:13:31;101761.56;;;6.87;100.00
33075;BME280;19433;51.292;6.868;2022-11-11T06:15:57;101767.91;;;6.87;100.00
33075;BME280;19433;51.292;6.868;2022-11-11T06:18:23;101769.53;;;6.70;100.00
33075;BME280;19433;51.292;6.868;2022-11-11T06:20:55;101758.66;;;6.79;100.00
33075;BME280;19433;51.292;6.868;2022-11-11T06:23:20;101749.84;;;6.75;100.00
33075;BME280;19433;51.292;6.868;2022-11-11T06:25:46;101768.78;;;6.78;100.00
33075;BME280;19433;51.292;6.868;2022-11-11T06:28:31;101772.09;;;6.82;100.00
33075;BME280;19433;51.292;6.868;2022-11-11T06:30:56;101778.47;;;6.82;100.00
33075;BME280;19433;51.292;6.868;2022-11-11T06:33:22;101769.06;;;6.75;100.00
33075;BME280;19433;51.292;6.868;2022-11-11T06:35:47;101774.81;;;6.91;100.00
33075;BME280;19433;51.292;6.868;2022-11-11T06:38:13;101781.66;;;6.87;100.00
33075;BME280;19433;51.292;6.868;2022-11-11T06:40:40;101791.63;;;6.79;100.00
33075;BME280;19433;51.292;6.868;2022-11-11T06:43:06;101785.41;;;6.77;100.00
33075;BME280;19433;51.292;6.868;2022-11-11T06:45:31;101800.63;;;6.71;100.00
33075;BME280;19433;51.292;6.868;2022-11-11T06:47:57;101787.88;;;6.80;100.00
33075;BME280;19433;51.292;6.868;2022-11-11T06:50:22;101799.88;;;6.79;100.00
33075;BME280;19433;51.292;6.868;2022-11-11T06:52:48;101807.94;;;6.90;100.00
33075;BME280;19433;51.292;6.868;2022-11-11T06:55:13;101815.00;;;6.92;100.00
33075;BME280;19433;51.292;6.868;2022-11-11T06:57:39;101823.06;;;7.03;100.00
33075;BME280;19433;51.292;6.868;2022-11-11T07:00:05;101822.63;;;7.08;100.00
33075;BME280;19433;51.292;6.868;2022-11-11T07:02:31;101829.75;;;7.01;100.00
33075;BME280;19433;51.292;6.868;2022-11-11T07:04:56;101825.69;;;7.05;100.00
33075;BME280;19433;51.292;6.868;2022-11-11T07:07:21;101824.06;;;7.12;100.00
33075;BME280;19433;51.292;6.868;2022-11-11T07:09:47;101827.41;;;7.16;100.00
33075;BME280;19433;51.292;6.868;2022-11-11T07:12:12;101822.34;;;7.11;100.00
33075;BME280;19433;51.292;6.868;2022-11-11T07:14:38;101824.22;;;7.11;100.00
33075;BME280;19433;51.292;6.868;2022-11-11T07:17:03;101824.38;;;7.09;100.00
33075;BME280;19433;51.292;6.868;2022-11-11T07:24:39;101817.22;;;7.26;100.00
33075;BME280;19433;51.292;6.868;2022-11-11T07:34:50;101830.84;;;7.55;100.00
33075;BME280;19433;51.292;6.868;2022-11-11T07:37:15;101825.16;;;7.66;100.00
33075;BME280;19433;51.292;6.868;2022-11-11T07:39:41;101818.03;;;7.73;100.00
33075;BME280;19433;51.292;6.868;2022-11-11T07:42:06;101836.34;;;7.82;100.00
33075;BME280;19433;51.292;6.868;2022-11-11T07:49:42;101848.78;;;8.13;100.00
33075;BME280;19433;51.292;6.868;2022-11-11T07:54:42;101864.91;;;8.36;99.28
33075;BME280;19433;51.292;6.868;2022-11-11T07:57:08;101860.16;;;8.46;98.26
33075;BME280;19433;51.292;6.868;2022-11-11T08:02:10;101826.25;;;8.45;97.11
33075;BME280;19433;51.292;6.868;2022-11-11T08:09:46;101851.59;;;8.67;96.21
33075;BME280;19433;51.292;6.868;2022-11-11T08:12:11;101844.81;;;8.61;96.60
33075;BME280;19433;51.292;6.868;2022-11-11T08:14:54;101848.75;;;8.76;95.53
33075;BME280;19433;51.292;6.868;2022-11-11T08:17:20;101844.19;;;8.85;95.07
33075;BME280;19433;51.292;6.868;2022-11-11T08:19:45;101837.63;;;8.86;94.36
33075;BME280;19433;51.292;6.868;2022-11-11T08:23:20;101854.09;;;9.22;93.61
33075;BME280;19433;51.292;6.868;2022-11-11T08:25:57;101873.88;;;9.43;92.54
33075;BME280;19433;51.292;6.868;2022-11-11T08:28:22;101872.25;;;9.58;91.99
33075;BME280;19433;51.292;6.868;2022-11-11T08:30:48;101870.56;;;9.65;91.54
33075;BME280;19433;51.292;6.868;2022-11-11T08:33:13;101870.78;;;9.72;90.64
33075;BME280;19433;51.292;6.868;2022-11-11T08:35:38;101872.25;;;9.92;89.93
33075;BME280;19433;51.292;6.868;2022-11-11T08:38:04;101880.88;;;9.89;89.65
33075;BME280;19433;51.292;6.868;2022-11-11T08:40:29;101884.03;;;10.02;89.26
33075;BME280;19433;51.292;6.868;2022-11-11T08:42:56;101880.41;;;10.02;88.66
33075;BME280;19433;51.292;6.868;2022-11-11T08:45:22;101870.38;;;10.01;88.91
33075;BME280;19433;51.292;6.868;2022-11-11T08:47:47;101880.53;;;10.34;87.78
33075;BME280;19433;51.292;6.868;2022-11-11T08:50:12;101874.47;;;10.23;87.25
33075;BME280;19433;51.292;6.868;2022-11-11T08:52:38;101884.03;;;10.10;87.77
33075;BME280;19433;51.292;6.868;2022-11-11T08:55:09;101874.81;;;10.19;87.50
33075;BME280;19433;51.292;6.868;2022-11-11T08:57:34;101883.47;;;10.33;86.70
33075;BME280;19433;51.292;6.868;2022-11-11T09:00:00;101871.94;;;10.37;86.32
33075;BME280;19433;51.292;6.868;2022-11-11T09:02:25;101875.06;;;10.50;85.99
33075;BME280;19433;51.292;6.868;2022-11-11T09:04:50;101881.31;;;10.69;85.50
33075;BME280;19433;51.292;6.868;2022-11-11T09:07:15;101879.41;;;11.02;83.52
33075;BME280;19433;51.292;6.868;2022-11-11T09:09:41;101880.38;;;11.57;81.01
33075;BME280;19433;51.292;6.868;2022-11-11T09:12:06;101882.44;;;11.72;79.05
33075;BME280;19433;51.292;6.868;2022-11-11T09:14:31;101891.81;;;11.54;80.09
33075;BME280;19433;51.292;6.868;2022-11-11T09:16:57;101894.28;;;11.25;81.04
33075;BME280;19433;51.292;6.868;2022-11-11T09:19:22;101878.16;;;11.37;81.25
33075;BME280;19433;51.292;6.868;2022-11-11T09:21:49;101895.56;;;11.78;79.74
33075;BME280;19433;51.292;6.868;2022-11-11T09:24:15;101888.06;;;11.94;78.64
33075;BME280;19433;51.292;6.868;2022-11-11T09:26:40;101896.84;;;12.14;77.17
33075;BME280;19433;51.292;6.868;2022-11-11T09:29:05;101897.31;;;12.80;74.60
33075;BME280;19433;51.292;6.868;2022-11-11T09:31:30;101898.16;;;13.78;70.65
33075;BME280;19433;51.292;6.868;2022-11-11T09:33:56;101903.25;;;14.33;67.59
33075;BME280;19433;51.292;6.868;2022-11-11T09:36:21;101898.19;;;14.94;64.74
33075;BME280;19433;51.292;6.868;2022-11-11T09:38:46;101912.00;;;15.52;62.33
33075;BME280;19433;51.292;6.868;2022-11-11T09:41:23;101917.22;;;15.61;62.68
33075;BME280;19433;51.292;6.868;2022-11-11T09:43:59;101914.88;;;15.58;60.57
33075;BME280;19433;51.292;6.868;2022-11-11T09:52:22;101907.72;;;15.06;63.27
33075;BME280;19433;51.292;6.868;2022-11-11T09:55:05;101920.75;;;15.70;60.02
33075;BME280;19433;51.292;6.868;2022-11-11T09:57:41;101916.25;;;14.84;62.20
33075;BME280;19433;51.292;6.868;2022-11-11T10:00:35;101911.44;;;14.56;65.33
33075;BME280;19433;51.292;6.868;2022-11-11T10:03:13;101932.47;;;14.00;67.61
33075;BME280;19433;51.292;6.868;2022-11-11T10:06:02;101918.03;;;14.04;66.96
33075;BME280;19433;51.292;6.868;2022-11-11T10:08:36;101921.75;;;13.97;67.79
33075;BME280;19433;51.292;6.868;2022-11-11T10:11:14;101920.50;;;13.99;67.83
33075;BME280;19433;51.292;6.868;2022-11-11T10:13:40;101915.69;;;13.79;67.73
33075;BME280;19433;51.292;6.868;2022-11-11T10:21:50;101915.41;;;13.59;68.89
33075;BME280;19433;51.292;6.868;2022-11-11T10:24:25;101928.97;;;13.54;68.34
33075;BME280;19433;51.292;6.868;2022-11-11T10:26:52;101927.13;;;13.84;67.99
33075;BME280;19433;51.292;6.868;2022-11-11T10:29:19;101926.44;;;13.82;67.42
33075;BME280;19433;51.292;6.868;2022-11-11T10:32:01;101934.19;;;13.71;68.64
33075;BME280;19433;51.292;6.868;2022-11-11T10:34:33;101917.22;;;13.66;68.64
33075;BME280;19433;51.292;6.868;2022-11-11T10:37:00;101923.66;;;13.96;68.58
33075;BME280;19433;51.292;6.868;2022-11-11T10:39:43;101917.53;;;14.16;67.53
33075;BME280;19433;51.292;6.868;2022-11-11T10:42:15;101917.41;;;14.24;66.33
33075;BME280;19433;51.292;6.868;2022-11-11T10:44:42;101918.88;;;14.05;67.25
33075;BME280;19433;51.292;6.868;2022-11-11T10:50:28;101914.81;;;14.22;66.73
33075;BME280;19433;51.292;6.868;2022-11-11T10:53:03;101924.31;;;14.28;65.51
33075;BME280;19433;51.292;6.868;2022-11-11T10:55:56;101914.75;;;14.16;65.93
33075;BME280;19433;51.292;6.868;2022-11-11T10:58:46;101925.56;;;14.11;66.54
33075;BME280;19433;51.292;6.868;2022-11-11T11:01:20;101930.66;;;14.07;67.52
33075;BME280;19433;51.292;6.868;2022-11-11T11:04:02;101925.66;;;14.32;67.56
33075;BME280;19433;51.292;6.868;2022-11-11T11:06:32;101937.28;;;14.35;65.58
33075;BME280;19433;51.292;6.868;2022-11-11T11:09:21;101932.66;;;14.57;64.55
33075;BME280;19433;51.292;6.868;2022-11-11T11:12:02;101923.56;;;14.19;65.51
33075;BME280;19433;51.292;6.868;2022-11-11T11:14:32;101937.94;;;13.93;65.95
33075;BME280;19433;51.292;6.868;2022-11-11T11:17:06;101931.31;;;13.80;67.01
33075;BME280;19433;51.292;6.868;2022-11-11T11:19:33;101932.84;;;13.67;66.99
33075;BME280;19433;51.292;6.868;2022-11-11T11:22:00;101928.47;;;13.88;66.97
33075;BME280;19433;51.292;6.868;2022-11-11T11:24:33;101928.66;;;13.86;66.34
33075;BME280;19433;51.292;6.868;2022-11-11T11:27:02;101937.16;;;13.70;66.49
33075;BME280;19433;51.292;6.868;2022-11-11T11:32:21;101919.72;;;14.05;65.97
33075;BME280;19433;51.292;6.868;2022-11-11T11:34:53;101924.53;;;13.97;66.71
33075;BME280;19433;51.292;6.868;2022-11-11T11:37:25;101919.81;;;14.27;65.87
33075;BME280;19433;51.292;6.868;2022-11-11T11:40:03;101913.75;;;14.53;64.35
33075;BME280;19433;51.292;6.868;2022-11-11T11:42:33;101925.69;;;14.47;64.31
33075;BME280;19433;51.292;6.868;2022-11-11T11:45:24;101920.50;;;14.29;66.02
33075;BME280;19433;51.292;6.868;2022-11-11T11:53:19;101912.22;;;14.65;64.89
33075;BME280;19433;51.292;6.868;2022-11-11T11:55:59;101898.75;;;14.68;63.79
33075;BME280;19433;51.292;6.868;2022-11-11T12:09:03;101887.44;;;14.19;65.56
33075;BME280;19433;51.292;6.868;2022-11-11T12:11:45;101882.13;;;14.24;65.99
33075;BME280;19433;51.292;6.868;2022-11-11T12:14:37;101887.91;;;14.08;66.46
33075;BME280;19433;51.292;6.868;2022-11-11T12:17:19;101884.06;;;14.24;66.17
33075;BME280;19433;51.292;6.868;2022-11-11T12:19:55;101871.88;;;14.25;66.31
33075;BME280;19433;51.292;6.868;2022-11-11T12:31:39;101869.25;;;14.53;65.95
33075;BME280;19433;51.292;6.868;2022-11-11T12:34:42;101878.94;;;14.57;66.05
33075;BME280;19433;51.292;6.868;2022-11-11T12:40:17;101861.41;;;14.77;65.52
33075;BME280;19433;51.292;6.868;2022-11-11T12:48:41;101860.72;;;14.39;65.36
33075;BME280;19433;51.292;6.868;2022-11-11T12:51:25;101851.06;;;13.85;67.12
33075;BME280;19433;51.292;6.868;2022-11-11T12:54:19;101850.38;;;13.68;68.50
33075;BME280;19433;51.292;6.868;2022-11-11T12:57:00;101853.22;;;13.60;69.33
33075;BME280;19433;51.292;6.868;2022-11-11T13:02:44;101855.56;;;13.71;68.67
33075;BME280;19433;51.292;6.868;2022-11-11T13:05:20;101852.66;;;13.64;69.78
33075;BME280;19433;51.292;6.868;2022-11-11T13:10:51;101845.13;;;13.73;70.29
33075;BME280;19433;51.292;6.868;2022-11-11T13:16:10;101845.31;;;13.71;70.02
33075;BME280;19433;51.292;6.868;2022-11-11T13:18:59;101852.47;;;13.81;70.16
33075;BME280;19433;51.292;6.868;2022-11-11T13:21:40;101858.72;;;13.83;70.85
33075;BME280;19433;51.292;6.868;2022-11-11T13:24:12;101855.75;;;13.84;70.33
33075;BME280;19433;51.292;6.868;2022-11-11T13:26:42;101843.47;;;13.93;70.27
33075;BME280;19433;51.292;6.868;2022-11-11T13:32:04;101844.13;;;14.10;69.63
33075;BME280;19433;51.292;6.868;2022-11-11T13:34:34;101841.28;;;13.89;71.10
33075;BME280;19433;51.292;6.868;2022-11-11T13:37:03;101848.16;;;13.93;70.64
33075;BME280;19433;51.292;6.868;2022-11-11T13:39:33;101845.97;;;13.88;70.37
33075;BME280;19433;51.292;6.868;2022-11-11T13:42:01;101833.31;;;14.00;70.75
33075;BME280;19433;51.292;6.868;2022-11-11T13:44:51;101838.69;;;14.02;69.91
33075;BME280;19433;51.292;6.868;2022-11-11T13:47:19;101841.06;;;14.05;70.33
33075;BME280;19433;51.292;6.868;2022-11-11T13:50:07;101835.63;;;13.82;71.59
33075;BME280;19433;51.292;6.868;2022-11-11T13:52:39;101836.66;;;13.96;71.05
33075;BME280;19433;51.292;6.868;2022-11-11T13:55:19;101834.44;;;14.06;69.64
33075;BME280;19433;51.292;6.868;2022-11-11T13:57:50;101839.56;;;13.88;70.13
33075;BME280;19433;51.292;6.868;2022-11-11T14:02:41;101834.66;;;13.75;70.42
33075;BME280;19433;51.292;6.868;2022-11-11T14:12:51;101834.97;;;13.65;71.05
33075;BME280;19433;51.292;6.868;2022-11-11T14:20:47;101827.59;;;13.43;72.01
33075;BME280;19433;51.292;6.868;2022-11-11T14:23:22;101830.44;;;13.50;71.81
33075;BME280;19433;51.292;6.868;2022-11-11T14:25:50;101831.69;;;13.47;72.61
33075;BME280;19433;51.292;6.868;2022-11-11T14:28:31;101824.41;;;13.61;71.98
33075;BME280;19433;51.292;6.868;2022-11-11T14:34:04;101838.28;;;13.61;72.01
33075;BME280;19433;51.292;6.868;2022-11-11T14:36:47;101839.16;;;13.47;73.04
33075;BME280;19433;51.292;6.868;2022-11-11T14:41:51;101839.34;;;13.60;72.18
33075;BME280;19433;51.292;6.868;2022-11-11T14:44:38;101833.59;;;13.61;72.34
33075;BME280;19433;51.292;6.868;2022-11-11T14:57:32;101841.34;;;13.22;74.72
33075;BME280;19433;51.292;6.868;2022-11-11T14:59:59;101842.81;;;13.10;75.28
33075;BME280;19433;51.292;6.868;2022-11-11T15:02:30;101843.81;;;12.94;76.42
33075;BME280;19433;51.292;6.868;2022-11-11T15:04:58;101833.47;;;12.88;76.84
33075;BME280;19433;51.292;6.868;2022-11-11T15:07:52;101842.53;;;12.82;77.45
33075;BME280;19433;51.292;6.868;2022-11-11T15:10:26;101844.13;;;12.76;77.87
33075;BME280;19433;51.292;6.868;2022-11-11T15:13:05;101835.94;;;12.60;78.95
33075;BME280;19433;51.292;6.868;2022-11-11T15:21:32;101833.41;;;12.50;78.52
33075;BME280;19433;51.292;6.868;2022-11-11T15:24:20;101830.09;;;12.24;79.82